sensor_id;sensor_type;location;lat;lon;timestamp;P1;durP1;ratioP1;P2;durP2;ratioP2
22764;SDS011;11549;50.852;3.816;2022-12-07T00:01:41;25.42;;;16.35;;
22764;SDS011;11549;50.852;3.816;2022-12-07T00:04:13;25.40;;;16.10;;
22764;SDS011;11549;50.852;3.816;2022-12-07T00:06:43;26.98;;;16.70;;
22764;SDS011;11549;50.852;3.816;2022-12-07T00:09:13;21.70;;;16.08;;
22764;SDS011;11549;50.852;3.816;2022-12-07T00:11:43;22.58;;;15.73;;
22764;SDS011;11549;50.852;3.816;2022-12-07T00:14:17;20.55;;;15.23;;
22764;SDS011;11549;50.852;3.816;2022-12-07T00:16:45;22.45;;;15.00;;
22764;SDS011;11549;50.852;3.816;2022-12-07T00:19:17;20.15;;;14.40;;
22764;SDS011;11549;50.852;3.816;2022-12-07T00:21:46;21.23;;;14.80;;
22764;SDS011;11549;50.852;3.816;2022-12-07T00:24:14;21.80;;;15.27;;
22764;SDS011;11549;50.852;3.816;2022-12-07T00:26:42;25.65;;;16.05;;
22764;SDS011;11549;50.852;3.816;2022-12-07T00:29:13;21.08;;;14.68;;
22764;SDS011;11549;50.852;3.816;2022-12-07T00:31:43;21.50;;;14.77;;
22764;SDS011;11549;50.852;3.816;2022-12-07T00:34:13;22.25;;;13.18;;
22764;SDS011;11549;50.852;3.816;2022-12-07T00:36:45;19.77;;;13.50;;
22764;SDS011;11549;50.852;3.816;2022-12-07T00:39:13;18.55;;;12.93;;
22764;SDS011;11549;50.852;3.816;2022-12-07T00:41:42;18.02;;;12.13;;
22764;SDS011;11549;50.852;3.816;2022-12-07T00:44:11;16.25;;;11.13;;
22764;SDS011;11549;50.852;3.816;2022-12-07T00:46:39;16.00;;;11.25;;
22764;SDS011;11549;50.852;3.816;2022-12-07T00:49:07;17.80;;;10.13;;
22764;SDS011;11549;50.852;3.816;2022-12-07T00:51:36;15.18;;;9.10;;
22764;SDS011;11549;50.852;3.816;2022-12-07T00:54:05;13.82;;;9.27;;
22764;SDS011;11549;50.852;3.816;2022-12-07T00:56:33;15.85;;;8.98;;
22764;SDS011;11549;50.852;3.816;2022-12-07T00:59:03;13.73;;;8.65;;
22764;SDS011;11549;50.852;3.816;2022-12-07T01:01:32;13.98;;;8.85;;
22764;SDS011;11549;50.852;3.816;2022-12-07T01:04:03;13.77;;;8.75;;
22764;SDS011;11549;50.852;3.816;2022-12-07T01:06:32;17.05;;;9.68;;
22764;SDS011;11549;50.852;3.816;2022-12-07T01:09:00;15.25;;;9.90;;
22764;SDS011;11549;50.852;3.816;2022-12-07T01:11:31;16.35;;;8.98;;
22764;SDS011;11549;50.852;3.816;2022-12-07T01:14:00;15.48;;;10.02;;
22764;SDS011;11549;50.852;3.816;2022-12-07T01:16:29;15.88;;;9.90;;
22764;SDS011;11549;50.852;3.816;2022-12-07T01:18:59;16.20;;;10.02;;
22764;SDS011;11549;50.852;3.816;2022-12-07T01:21:29;18.85;;;10.00;;
22764;SDS011;11549;50.852;3.816;2022-12-07T01:24:01;15.55;;;10.15;;
22764;SDS011;11549;50.852;3.816;2022-12-07T01:26:31;16.85;;;11.10;;
22764;SDS011;11549;50.852;3.816;2022-12-07T01:28:59;18.27;;;10.65;;
22764;SDS011;11549;50.852;3.816;2022-12-07T01:31:28;21.13;;;12.45;;
22764;SDS011;11549;50.852;3.816;2022-12-07T01:33:57;17.40;;;11.80;;
22764;SDS011;11549;50.852;3.816;2022-12-07T01:36:27;18.30;;;11.40;;
22764;SDS011;11549;50.852;3.816;2022-12-07T01:38:58;17.30;;;11.85;;
22764;SDS011;11549;50.852;3.816;2022-12-07T01:41:28;18.90;;;11.57;;
22764;SDS011;11549;50.852;3.816;2022-12-07T01:46:53;19.35;;;12.20;;
22764;SDS011;11549;50.852;3.816;2022-12-07T01:49:25;16.80;;;11.50;;
22764;SDS011;11549;50.852;3.816;2022-12-07T01:51:58;21.23;;;12.52;;
22764;SDS011;11549;50.852;3.816;2022-12-07T01:54:36;19.38;;;12.30;;
22764;SDS011;11549;50.852;3.816;2022-12-07T01:57:04;16.75;;;11.82;;
22764;SDS011;11549;50.852;3.816;2022-12-07T01:59:36;16.27;;;11.93;;
22764;SDS011;11549;50.852;3.816;2022-12-07T02:02:07;16.45;;;11.90;;
22764;SDS011;11549;50.852;3.816;2022-12-07T02:07:08;15.13;;;10.70;;
22764;SDS011;11549;50.852;3.816;2022-12-07T02:09:36;18.42;;;11.95;;
22764;SDS011;11549;50.852;3.816;2022-12-07T02:12:04;19.30;;;12.30;;
22764;SDS011;11549;50.852;3.816;2022-12-07T02:14:34;16.83;;;11.38;;
22764;SDS011;11549;50.852;3.816;2022-12-07T02:17:06;17.67;;;11.63;;
22764;SDS011;11549;50.852;3.816;2022-12-07T02:19:51;19.15;;;11.65;;
22764;SDS011;11549;50.852;3.816;2022-12-07T02:22:51;20.80;;;12.02;;
22764;SDS011;11549;50.852;3.816;2022-12-07T02:29:10;21.52;;;12.40;;
22764;SDS011;11549;50.852;3.816;2022-12-07T02:31:43;21.83;;;13.30;;
22764;SDS011;11549;50.852;3.816;2022-12-07T02:34:19;21.58;;;12.98;;
22764;SDS011;11549;50.852;3.816;2022-12-07T02:36:53;22.77;;;13.25;;
22764;SDS011;11549;50.852;3.816;2022-12-07T02:39:26;20.55;;;13.35;;
22764;SDS011;11549;50.852;3.816;2022-12-07T02:42:02;22.27;;;13.23;;
22764;SDS011;11549;50.852;3.816;2022-12-07T02:44:38;19.52;;;12.70;;
22764;SDS011;11549;50.852;3.816;2022-12-07T02:47:08;21.80;;;12.65;;
22764;SDS011;11549;50.852;3.816;2022-12-07T02:49:40;27.00;;;14.40;;
22764;SDS011;11549;50.852;3.816;2022-12-07T02:52:08;19.08;;;12.35;;
22764;SDS011;11549;50.852;3.816;2022-12-07T02:54:36;22.17;;;12.32;;
22764;SDS011;11549;50.852;3.816;2022-12-07T02:57:09;22.00;;;12.85;;
22764;SDS011;11549;50.852;3.816;2022-12-07T02:59:54;17.90;;;11.27;;
22764;SDS011;11549;50.852;3.816;2022-12-07T03:02:31;19.13;;;11.80;;
22764;SDS011;11549;50.852;3.816;2022-12-07T03:05:13;20.60;;;12.00;;
22764;SDS011;11549;50.852;3.816;2022-12-07T03:07:55;17.88;;;11.10;;
22764;SDS011;11549;50.852;3.816;2022-12-07T03:10:33;19.50;;;11.38;;
22764;SDS011;11549;50.852;3.816;2022-12-07T03:13:09;14.32;;;10.15;;
22764;SDS011;11549;50.852;3.816;2022-12-07T03:15:46;19.33;;;10.02;;
22764;SDS011;11549;50.852;3.816;2022-12-07T03:18:22;15.95;;;9.90;;
22764;SDS011;11549;50.852;3.816;2022-12-07T03:20:53;17.98;;;10.02;;
22764;SDS011;11549;50.852;3.816;2022-12-07T03:23:25;20.75;;;10.80;;
22764;SDS011;11549;50.852;3.816;2022-12-07T03:25:55;17.17;;;10.75;;
22764;SDS011;11549;50.852;3.816;2022-12-07T03:28:28;19.85;;;11.30;;
22764;SDS011;11549;50.852;3.816;2022-12-07T03:31:03;18.73;;;11.30;;
22764;SDS011;11549;50.852;3.816;2022-12-07T03:33:37;17.33;;;10.98;;
22764;SDS011;11549;50.852;3.816;2022-12-07T03:36:11;17.67;;;11.38;;
22764;SDS011;11549;50.852;3.816;2022-12-07T03:38:45;19.20;;;12.13;;
22764;SDS011;11549;50.852;3.816;2022-12-07T03:41:18;19.38;;;12.23;;
22764;SDS011;11549;50.852;3.816;2022-12-07T03:46:21;17.52;;;11.77;;
22764;SDS011;11549;50.852;3.816;2022-12-07T03:48:59;18.58;;;12.82;;
22764;SDS011;11549;50.852;3.816;2022-12-07T03:51:33;19.25;;;11.75;;
22764;SDS011;11549;50.852;3.816;2022-12-07T03:54:09;22.38;;;12.27;;
22764;SDS011;11549;50.852;3.816;2022-12-07T03:56:43;19.83;;;12.63;;
22764;SDS011;11549;50.852;3.816;2022-12-07T03:59:13;21.15;;;13.07;;
22764;SDS011;11549;50.852;3.816;2022-12-07T04:01:44;20.33;;;12.05;;
22764;SDS011;11549;50.852;3.816;2022-12-07T04:04:20;18.50;;;11.35;;
22764;SDS011;11549;50.852;3.816;2022-12-07T04:06:49;20.45;;;11.00;;
22764;SDS011;11549;50.852;3.816;2022-12-07T04:09:17;18.77;;;11.55;;
22764;SDS011;11549;50.852;3.816;2022-12-07T04:11:46;20.85;;;10.45;;
22764;SDS011;11549;50.852;3.816;2022-12-07T04:14:14;17.00;;;9.57;;
22764;SDS011;11549;50.852;3.816;2022-12-07T04:16:51;16.17;;;9.68;;
22764;SDS011;11549;50.852;3.816;2022-12-07T04:19:23;17.00;;;9.77;;
22764;SDS011;11549;50.852;3.816;2022-12-07T04:21:53;16.50;;;9.98;;
22764;SDS011;11549;50.852;3.816;2022-12-07T04:24:22;17.38;;;9.95;;
22764;SDS011;11549;50.852;3.816;2022-12-07T04:26:51;16.38;;;9.70;;
22764;SDS011;11549;50.852;3.816;2022-12-07T04:29:20;16.60;;;9.68;;
22764;SDS011;11549;50.852;3.816;2022-12-07T04:31:50;17.25;;;10.65;;
22764;SDS011;11549;50.852;3.816;2022-12-07T04:34:19;18.70;;;10.45;;
22764;SDS011;11549;50.852;3.816;2022-12-07T04:36:48;15.80;;;9.18;;
22764;SDS011;11549;50.852;3.816;2022-12-07T04:39:18;16.50;;;9.73;;
22764;SDS011;11549;50.852;3.816;2022-12-07T04:41:48;16.20;;;9.70;;
22764;SDS011;11549;50.852;3.816;2022-12-07T04:44:16;16.88;;;9.48;;
22764;SDS011;11549;50.852;3.816;2022-12-07T04:46:46;18.67;;;9.35;;
22764;SDS011;11549;50.852;3.816;2022-12-07T04:49:16;13.98;;;9.45;;
22764;SDS011;11549;50.852;3.816;2022-12-07T04:51:45;14.88;;;9.02;;
22764;SDS011;11549;50.852;3.816;2022-12-07T04:54:14;15.20;;;8.90;;
22764;SDS011;11549;50.852;3.816;2022-12-07T04:56:43;16.33;;;9.18;;
22764;SDS011;11549;50.852;3.816;2022-12-07T04:59:12;20.83;;;9.75;;
22764;SDS011;11549;50.852;3.816;2022-12-07T05:01:42;19.00;;;9.57;;
22764;SDS011;11549;50.852;3.816;2022-12-07T05:04:11;19.95;;;9.63;;
22764;SDS011;11549;50.852;3.816;2022-12-07T05:06:41;18.35;;;9.25;;
22764;SDS011;11549;50.852;3.816;2022-12-07T05:09:09;16.73;;;9.52;;
22764;SDS011;11549;50.852;3.816;2022-12-07T05:11:38;17.40;;;8.98;;
22764;SDS011;11549;50.852;3.816;2022-12-07T05:14:08;15.45;;;8.85;;
22764;SDS011;11549;50.852;3.816;2022-12-07T05:16:38;19.48;;;9.75;;
22764;SDS011;11549;50.852;3.816;2022-12-07T05:19:08;17.75;;;9.50;;
22764;SDS011;11549;50.852;3.816;2022-12-07T05:21:37;18.35;;;9.30;;
22764;SDS011;11549;50.852;3.816;2022-12-07T05:24:07;16.52;;;9.52;;
22764;SDS011;11549;50.852;3.816;2022-12-07T05:26:38;17.45;;;8.85;;
22764;SDS011;11549;50.852;3.816;2022-12-07T05:29:07;18.50;;;9.48;;
22764;SDS011;11549;50.852;3.816;2022-12-07T05:31:38;16.77;;;9.48;;
22764;SDS011;11549;50.852;3.816;2022-12-07T05:34:07;16.33;;;10.13;;
22764;SDS011;11549;50.852;3.816;2022-12-07T05:36:35;24.20;;;11.35;;
22764;SDS011;11549;50.852;3.816;2022-12-07T05:39:03;19.63;;;11.55;;
22764;SDS011;11549;50.852;3.816;2022-12-07T05:41:34;21.35;;;11.10;;
22764;SDS011;11549;50.852;3.816;2022-12-07T05:44:19;20.25;;;10.98;;
22764;SDS011;11549;50.852;3.816;2022-12-07T05:46:47;22.60;;;11.88;;
22764;SDS011;11549;50.852;3.816;2022-12-07T05:49:16;19.17;;;11.00;;
22764;SDS011;11549;50.852;3.816;2022-12-07T05:51:44;18.27;;;11.40;;
22764;SDS011;11549;50.852;3.816;2022-12-07T05:54:13;19.77;;;11.15;;
22764;SDS011;11549;50.852;3.816;2022-12-07T05:56:43;19.15;;;11.13;;
22764;SDS011;11549;50.852;3.816;2022-12-07T05:59:11;18.65;;;10.63;;
22764;SDS011;11549;50.852;3.816;2022-12-07T06:01:51;20.33;;;10.82;;
22764;SDS011;11549;50.852;3.816;2022-12-07T06:04:20;19.35;;;10.23;;
22764;SDS011;11549;50.852;3.816;2022-12-07T06:06:49;15.90;;;9.57;;
22764;SDS011;11549;50.852;3.816;2022-12-07T06:09:17;17.73;;;10.60;;
22764;SDS011;11549;50.852;3.816;2022-12-07T06:11:48;18.20;;;8.70;;
22764;SDS011;11549;50.852;3.816;2022-12-07T06:14:34;17.00;;;9.35;;
22764;SDS011;11549;50.852;3.816;2022-12-07T06:17:02;16.05;;;9.52;;
22764;SDS011;11549;50.852;3.816;2022-12-07T06:19:31;17.42;;;10.02;;
22764;SDS011;11549;50.852;3.816;2022-12-07T06:22:00;24.40;;;16.83;;
22764;SDS011;11549;50.852;3.816;2022-12-07T06:24:29;22.38;;;12.52;;
22764;SDS011;11549;50.852;3.816;2022-12-07T06:26:58;16.80;;;10.52;;
22764;SDS011;11549;50.852;3.816;2022-12-07T06:29:27;17.02;;;9.82;;
22764;SDS011;11549;50.852;3.816;2022-12-07T06:31:55;16.05;;;9.60;;
22764;SDS011;11549;50.852;3.816;2022-12-07T06:34:24;17.92;;;8.70;;
22764;SDS011;11549;50.852;3.816;2022-12-07T06:36:53;17.45;;;9.15;;
22764;SDS011;11549;50.852;3.816;2022-12-07T06:39:23;17.75;;;8.93;;
22764;SDS011;11549;50.852;3.816;2022-12-07T06:41:55;12.77;;;8.35;;
22764;SDS011;11549;50.852;3.816;2022-12-07T06:44:25;17.33;;;9.13;;
22764;SDS011;11549;50.852;3.816;2022-12-07T06:46:54;19.98;;;9.60;;
22764;SDS011;11549;50.852;3.816;2022-12-07T06:49:43;17.48;;;9.55;;
22764;SDS011;11549;50.852;3.816;2022-12-07T06:52:11;17.13;;;9.90;;
22764;SDS011;11549;50.852;3.816;2022-12-07T06:54:39;16.25;;;10.00;;
22764;SDS011;11549;50.852;3.816;2022-12-07T06:57:08;20.35;;;9.52;;
22764;SDS011;11549;50.852;3.816;2022-12-07T06:59:37;17.58;;;9.63;;
22764;SDS011;11549;50.852;3.816;2022-12-07T07:02:07;22.50;;;11.55;;
22764;SDS011;11549;50.852;3.816;2022-12-07T07:04:36;19.67;;;11.35;;
22764;SDS011;11549;50.852;3.816;2022-12-07T07:07:04;20.50;;;11.68;;
22764;SDS011;11549;50.852;3.816;2022-12-07T07:09:33;22.63;;;12.60;;
22764;SDS011;11549;50.852;3.816;2022-12-07T07:12:01;19.33;;;12.20;;
22764;SDS011;11549;50.852;3.816;2022-12-07T07:14:29;19.58;;;11.65;;
22764;SDS011;11549;50.852;3.816;2022-12-07T07:16:59;20.33;;;11.77;;
22764;SDS011;11549;50.852;3.816;2022-12-07T07:19:27;20.05;;;12.27;;
22764;SDS011;11549;50.852;3.816;2022-12-07T07:21:56;20.65;;;11.23;;
22764;SDS011;11549;50.852;3.816;2022-12-07T07:24:24;20.70;;;11.13;;
22764;SDS011;11549;50.852;3.816;2022-12-07T07:26:52;20.17;;;11.55;;
22764;SDS011;11549;50.852;3.816;2022-12-07T07:29:21;20.88;;;11.73;;
22764;SDS011;11549;50.852;3.816;2022-12-07T07:31:49;19.73;;;11.30;;
22764;SDS011;11549;50.852;3.816;2022-12-07T07:34:19;19.08;;;10.88;;
22764;SDS011;11549;50.852;3.816;2022-12-07T07:36:47;20.40;;;11.60;;
22764;SDS011;11549;50.852;3.816;2022-12-07T07:39:15;20.92;;;12.18;;
22764;SDS011;11549;50.852;3.816;2022-12-07T07:41:44;19.23;;;12.27;;
22764;SDS011;11549;50.852;3.816;2022-12-07T07:44:12;24.35;;;11.73;;
22764;SDS011;11549;50.852;3.816;2022-12-07T07:46:41;20.35;;;12.50;;
22764;SDS011;11549;50.852;3.816;2022-12-07T07:49:10;21.73;;;11.80;;
22764;SDS011;11549;50.852;3.816;2022-12-07T07:51:39;21.17;;;11.98;;
22764;SDS011;11549;50.852;3.816;2022-12-07T07:54:08;23.98;;;11.80;;
22764;SDS011;11549;50.852;3.816;2022-12-07T07:56:36;17.10;;;10.70;;
22764;SDS011;11549;50.852;3.816;2022-12-07T07:59:04;18.58;;;10.50;;
22764;SDS011;11549;50.852;3.816;2022-12-07T08:01:33;17.17;;;10.10;;
22764;SDS011;11549;50.852;3.816;2022-12-07T08:04:02;13.93;;;9.70;;
22764;SDS011;11549;50.852;3.816;2022-12-07T08:06:30;14.52;;;9.85;;
22764;SDS011;11549;50.852;3.816;2022-12-07T08:09:00;17.45;;;9.63;;
22764;SDS011;11549;50.852;3.816;2022-12-07T08:11:29;19.20;;;10.90;;
22764;SDS011;11549;50.852;3.816;2022-12-07T08:13:57;20.90;;;10.88;;
22764;SDS011;11549;50.852;3.816;2022-12-07T08:16:25;17.13;;;9.77;;
22764;SDS011;11549;50.852;3.816;2022-12-07T08:18:54;13.23;;;9.40;;
22764;SDS011;11549;50.852;3.816;2022-12-07T08:21:22;17.70;;;10.43;;
22764;SDS011;11549;50.852;3.816;2022-12-07T08:23:50;16.30;;;9.60;;
22764;SDS011;11549;50.852;3.816;2022-12-07T08:26:20;14.85;;;9.52;;
22764;SDS011;11549;50.852;3.816;2022-12-07T08:28:49;19.77;;;12.27;;
22764;SDS011;11549;50.852;3.816;2022-12-07T08:31:17;20.33;;;12.02;;
22764;SDS011;11549;50.852;3.816;2022-12-07T08:33:46;20.42;;;10.73;;
22764;SDS011;11549;50.852;3.816;2022-12-07T08:36:15;18.77;;;8.73;;
22764;SDS011;11549;50.852;3.816;2022-12-07T08:38:44;14.73;;;8.18;;
22764;SDS011;11549;50.852;3.816;2022-12-07T08:41:34;14.07;;;9.60;;
22764;SDS011;11549;50.852;3.816;2022-12-07T08:44:03;14.50;;;9.50;;
22764;SDS011;11549;50.852;3.816;2022-12-07T08:46:32;15.65;;;10.20;;
22764;SDS011;11549;50.852;3.816;2022-12-07T08:49:04;20.85;;;11.20;;
22764;SDS011;11549;50.852;3.816;2022-12-07T08:51:35;17.80;;;10.95;;
22764;SDS011;11549;50.852;3.816;2022-12-07T08:54:05;16.02;;;10.20;;
22764;SDS011;11549;50.852;3.816;2022-12-07T08:56:38;19.33;;;8.88;;
22764;SDS011;11549;50.852;3.816;2022-12-07T08:59:07;16.92;;;8.82;;
22764;SDS011;11549;50.852;3.816;2022-12-07T09:01:35;14.80;;;8.77;;
22764;SDS011;11549;50.852;3.816;2022-12-07T09:04:04;14.20;;;9.13;;
22764;SDS011;11549;50.852;3.816;2022-12-07T09:06:32;13.65;;;8.20;;
22764;SDS011;11549;50.852;3.816;2022-12-07T09:09:01;13.45;;;8.02;;
22764;SDS011;11549;50.852;3.816;2022-12-07T09:11:30;15.00;;;8.02;;
22764;SDS011;11549;50.852;3.816;2022-12-07T09:14:00;17.10;;;8.18;;
22764;SDS011;11549;50.852;3.816;2022-12-07T09:16:29;17.52;;;8.20;;
22764;SDS011;11549;50.852;3.816;2022-12-07T09:18:57;14.52;;;8.10;;
22764;SDS011;11549;50.852;3.816;2022-12-07T09:21:25;20.38;;;8.70;;
22764;SDS011;11549;50.852;3.816;2022-12-07T09:23:54;15.10;;;7.30;;
22764;SDS011;11549;50.852;3.816;2022-12-07T09:26:22;14.55;;;8.32;;
22764;SDS011;11549;50.852;3.816;2022-12-07T09:28:51;11.77;;;7.53;;
22764;SDS011;11549;50.852;3.816;2022-12-07T09:31:20;15.02;;;7.65;;
22764;SDS011;11549;50.852;3.816;2022-12-07T09:33:54;15.75;;;7.95;;
22764;SDS011;11549;50.852;3.816;2022-12-07T09:36:23;13.38;;;7.10;;
22764;SDS011;11549;50.852;3.816;2022-12-07T09:38:53;15.32;;;7.40;;
22764;SDS011;11549;50.852;3.816;2022-12-07T09:41:21;12.98;;;6.53;;
22764;SDS011;11549;50.852;3.816;2022-12-07T09:43:51;18.48;;;6.55;;
22764;SDS011;11549;50.852;3.816;2022-12-07T09:46:22;9.80;;;5.43;;
22764;SDS011;11549;50.852;3.816;2022-12-07T09:48:50;11.15;;;5.50;;
22764;SDS011;11549;50.852;3.816;2022-12-07T09:51:20;10.40;;;5.20;;
22764;SDS011;11549;50.852;3.816;2022-12-07T09:53:52;11.32;;;4.72;;
22764;SDS011;11549;50.852;3.816;2022-12-07T09:56:22;9.50;;;5.00;;
22764;SDS011;11549;50.852;3.816;2022-12-07T09:58:51;12.07;;;5.07;;
22764;SDS011;11549;50.852;3.816;2022-12-07T10:01:29;8.32;;;4.70;;
22764;SDS011;11549;50.852;3.816;2022-12-07T10:04:00;11.55;;;4.60;;
22764;SDS011;11549;50.852;3.816;2022-12-07T10:06:36;12.52;;;4.82;;
22764;SDS011;11549;50.852;3.816;2022-12-07T10:09:08;11.50;;;4.53;;
22764;SDS011;11549;50.852;3.816;2022-12-07T10:14:25;10.52;;;4.70;;
22764;SDS011;11549;50.852;3.816;2022-12-07T10:17:31;9.35;;;3.92;;
22764;SDS011;11549;50.852;3.816;2022-12-07T10:20:10;8.70;;;4.22;;
22764;SDS011;11549;50.852;3.816;2022-12-07T10:22:55;9.90;;;4.38;;
22764;SDS011;11549;50.852;3.816;2022-12-07T10:25:29;9.27;;;4.35;;
22764;SDS011;11549;50.852;3.816;2022-12-07T10:28:00;8.80;;;4.00;;
22764;SDS011;11549;50.852;3.816;2022-12-07T10:30:49;14.32;;;5.25;;
22764;SDS011;11549;50.852;3.816;2022-12-07T10:33:31;8.70;;;5.10;;
22764;SDS011;11549;50.852;3.816;2022-12-07T10:36:15;10.50;;;4.85;;
22764;SDS011;11549;50.852;3.816;2022-12-07T10:38:47;9.55;;;5.50;;
22764;SDS011;11549;50.852;3.816;2022-12-07T10:41:17;12.10;;;5.13;;
22764;SDS011;11549;50.852;3.816;2022-12-07T10:43:49;11.23;;;5.70;;
22764;SDS011;11549;50.852;3.816;2022-12-07T10:46:33;13.00;;;5.43;;
22764;SDS011;11549;50.852;3.816;2022-12-07T10:53:07;10.95;;;5.47;;
22764;SDS011;11549;50.852;3.816;2022-12-07T10:55:57;11.85;;;6.45;;
22764;SDS011;11549;50.852;3.816;2022-12-07T10:58:47;15.23;;;6.95;;
22764;SDS011;11549;50.852;3.816;2022-12-07T11:01:31;15.77;;;8.38;;
22764;SDS011;11549;50.852;3.816;2022-12-07T11:04:12;16.02;;;8.18;;
22764;SDS011;11549;50.852;3.816;2022-12-07T11:06:51;11.30;;;7.00;;
22764;SDS011;11549;50.852;3.816;2022-12-07T11:09:32;12.73;;;6.68;;
22764;SDS011;11549;50.852;3.816;2022-12-07T11:12:42;14.07;;;6.40;;
22764;SDS011;11549;50.852;3.816;2022-12-07T11:15:21;12.82;;;6.55;;
22764;SDS011;11549;50.852;3.816;2022-12-07T11:17:55;12.93;;;5.72;;
22764;SDS011;11549;50.852;3.816;2022-12-07T11:20:30;12.10;;;6.03;;
22764;SDS011;11549;50.852;3.816;2022-12-07T11:23:11;11.75;;;6.75;;
22764;SDS011;11549;50.852;3.816;2022-12-07T11:25:53;11.98;;;5.85;;
22764;SDS011;11549;50.852;3.816;2022-12-07T11:28:31;11.70;;;6.57;;
22764;SDS011;11549;50.852;3.816;2022-12-07T11:31:11;9.55;;;5.50;;
22764;SDS011;11549;50.852;3.816;2022-12-07T11:33:55;13.23;;;5.68;;
22764;SDS011;11549;50.852;3.816;2022-12-07T11:36:33;10.45;;;5.75;;
22764;SDS011;11549;50.852;3.816;2022-12-07T11:39:10;11.52;;;5.93;;
22764;SDS011;11549;50.852;3.816;2022-12-07T11:41:50;12.48;;;6.38;;
22764;SDS011;11549;50.852;3.816;2022-12-07T11:44:25;11.93;;;6.35;;
22764;SDS011;11549;50.852;3.816;2022-12-07T11:46:58;13.07;;;6.38;;
22764;SDS011;11549;50.852;3.816;2022-12-07T11:49:37;11.30;;;6.18;;
22764;SDS011;11549;50.852;3.816;2022-12-07T11:52:13;12.60;;;6.22;;
22764;SDS011;11549;50.852;3.816;2022-12-07T11:54:47;11.07;;;5.95;;
22764;SDS011;11549;50.852;3.816;2022-12-07T11:57:22;10.20;;;6.05;;
22764;SDS011;11549;50.852;3.816;2022-12-07T11:59:57;12.85;;;6.35;;
22764;SDS011;11549;50.852;3.816;2022-12-07T12:02:32;10.73;;;5.93;;
22764;SDS011;11549;50.852;3.816;2022-12-07T12:05:07;12.70;;;5.50;;
22764;SDS011;11549;50.852;3.816;2022-12-07T12:07:43;12.82;;;6.22;;
22764;SDS011;11549;50.852;3.816;2022-12-07T12:10:37;10.98;;;5.93;;
22764;SDS011;11549;50.852;3.816;2022-12-07T12:13:16;8.98;;;5.20;;
22764;SDS011;11549;50.852;3.816;2022-12-07T12:16:50;10.20;;;5.05;;
22764;SDS011;11549;50.852;3.816;2022-12-07T12:19:32;10.90;;;4.57;;
22764;SDS011;11549;50.852;3.816;2022-12-07T12:22:07;9.32;;;4.47;;
22764;SDS011;11549;50.852;3.816;2022-12-07T12:24:42;13.10;;;5.70;;
22764;SDS011;11549;50.852;3.816;2022-12-07T12:27:16;10.70;;;5.13;;
22764;SDS011;11549;50.852;3.816;2022-12-07T12:29:53;11.45;;;4.80;;
22764;SDS011;11549;50.852;3.816;2022-12-07T12:32:24;13.13;;;5.45;;
22764;SDS011;11549;50.852;3.816;2022-12-07T12:37:49;11.75;;;5.07;;
22764;SDS011;11549;50.852;3.816;2022-12-07T12:40:39;8.88;;;4.13;;
22764;SDS011;11549;50.852;3.816;2022-12-07T12:55:42;5.78;;;2.55;;
22764;SDS011;11549;50.852;3.816;2022-12-07T12:58:41;5.35;;;2.70;;
22764;SDS011;11549;50.852;3.816;2022-12-07T13:04:23;8.43;;;4.28;;
22764;SDS011;11549;50.852;3.816;2022-12-07T13:07:13;12.77;;;6.00;;
22764;SDS011;11549;50.852;3.816;2022-12-07T13:10:08;7.93;;;3.53;;
22764;SDS011;11549;50.852;3.816;2022-12-07T13:12:55;8.80;;;3.17;;
22764;SDS011;11549;50.852;3.816;2022-12-07T13:15:34;8.20;;;3.53;;
22764;SDS011;11549;50.852;3.816;2022-12-07T13:18:21;18.42;;;7.93;;
22764;SDS011;11549;50.852;3.816;2022-12-07T13:20:54;8.23;;;3.97;;
22764;SDS011;11549;50.852;3.816;2022-12-07T13:23:24;7.57;;;3.22;;
22764;SDS011;11549;50.852;3.816;2022-12-07T13:25:58;7.70;;;2.60;;
22764;SDS011;11549;50.852;3.816;2022-12-07T13:28:33;7.88;;;2.78;;
22764;SDS011;11549;50.852;3.816;2022-12-07T13:31:11;6.68;;;2.50;;
22764;SDS011;11549;50.852;3.816;2022-12-07T13:33:51;6.40;;;2.58;;
22764;SDS011;11549;50.852;3.816;2022-12-07T13:36:25;4.03;;;1.90;;
22764;SDS011;11549;50.852;3.816;2022-12-07T13:38:55;4.30;;;1.95;;
22764;SDS011;11549;50.852;3.816;2022-12-07T13:41:25;5.05;;;1.95;;
22764;SDS011;11549;50.852;3.816;2022-12-07T13:44:00;7.05;;;2.05;;
22764;SDS011;11549;50.852;3.816;2022-12-07T13:49:12;4.45;;;2.13;;
22764;SDS011;11549;50.852;3.816;2022-12-07T13:51:49;3.45;;;1.95;;
22764;SDS011;11549;50.852;3.816;2022-12-07T13:54:18;6.70;;;2.00;;
22764;SDS011;11549;50.852;3.816;2022-12-07T13:56:48;4.93;;;2.10;;
22764;SDS011;11549;50.852;3.816;2022-12-07T13:59:19;6.75;;;2.22;;
22764;SDS011;11549;50.852;3.816;2022-12-07T14:01:50;5.75;;;1.65;;
22764;SDS011;11549;50.852;3.816;2022-12-07T14:04:29;4.30;;;1.65;;
22764;SDS011;11549;50.852;3.816;2022-12-07T14:07:00;3.35;;;1.45;;
22764;SDS011;11549;50.852;3.816;2022-12-07T14:09:52;4.95;;;1.80;;
22764;SDS011;11549;50.852;3.816;2022-12-07T14:12:21;4.50;;;1.30;;
22764;SDS011;11549;50.852;3.816;2022-12-07T14:14:51;4.57;;;1.70;;
22764;SDS011;11549;50.852;3.816;2022-12-07T14:17:21;4.50;;;1.60;;
22764;SDS011;11549;50.852;3.816;2022-12-07T14:19:51;7.15;;;1.80;;
22764;SDS011;11549;50.852;3.816;2022-12-07T14:22:24;5.80;;;2.28;;
22764;SDS011;11549;50.852;3.816;2022-12-07T14:24:58;6.82;;;2.80;;
22764;SDS011;11549;50.852;3.816;2022-12-07T14:27:30;7.43;;;3.22;;
22764;SDS011;11549;50.852;3.816;2022-12-07T14:30:02;5.10;;;2.17;;
22764;SDS011;11549;50.852;3.816;2022-12-07T14:32:31;5.22;;;1.90;;
22764;SDS011;11549;50.852;3.816;2022-12-07T14:35:03;4.85;;;2.10;;
22764;SDS011;11549;50.852;3.816;2022-12-07T14:37:39;7.45;;;2.58;;
22764;SDS011;11549;50.852;3.816;2022-12-07T14:40:12;6.93;;;2.50;;
22764;SDS011;11549;50.852;3.816;2022-12-07T14:42:41;8.65;;;3.30;;
22764;SDS011;11549;50.852;3.816;2022-12-07T14:45:13;10.77;;;4.10;;
22764;SDS011;11549;50.852;3.816;2022-12-07T14:47:43;7.95;;;4.57;;
22764;SDS011;11549;50.852;3.816;2022-12-07T14:50:33;11.05;;;4.65;;
22764;SDS011;11549;50.852;3.816;2022-12-07T14:53:28;8.47;;;5.07;;
22764;SDS011;11549;50.852;3.816;2022-12-07T14:55:59;13.23;;;5.65;;
22764;SDS011;11549;50.852;3.816;2022-12-07T14:58:27;14.48;;;4.90;;
22764;SDS011;11549;50.852;3.816;2022-12-07T15:00:56;9.57;;;4.60;;
22764;SDS011;11549;50.852;3.816;2022-12-07T15:03:24;8.65;;;4.43;;
22764;SDS011;11549;50.852;3.816;2022-12-07T15:05:53;11.27;;;4.80;;
22764;SDS011;11549;50.852;3.816;2022-12-07T15:08:21;11.73;;;4.82;;
22764;SDS011;11549;50.852;3.816;2022-12-07T15:10:51;10.30;;;4.47;;
22764;SDS011;11549;50.852;3.816;2022-12-07T15:13:19;9.40;;;4.43;;
22764;SDS011;11549;50.852;3.816;2022-12-07T15:16:07;13.05;;;4.55;;
22764;SDS011;11549;50.852;3.816;2022-12-07T15:21:23;10.52;;;4.25;;
22764;SDS011;11549;50.852;3.816;2022-12-07T15:23:52;9.88;;;3.95;;
22764;SDS011;11549;50.852;3.816;2022-12-07T15:26:22;9.88;;;4.43;;
22764;SDS011;11549;50.852;3.816;2022-12-07T15:28:53;7.93;;;4.72;;
22764;SDS011;11549;50.852;3.816;2022-12-07T15:31:21;14.00;;;5.28;;
22764;SDS011;11549;50.852;3.816;2022-12-07T15:34:09;10.48;;;5.00;;
22764;SDS011;11549;50.852;3.816;2022-12-07T15:36:38;11.80;;;5.60;;
22764;SDS011;11549;50.852;3.816;2022-12-07T15:39:06;13.48;;;5.75;;
22764;SDS011;11549;50.852;3.816;2022-12-07T15:41:41;11.75;;;4.85;;
22764;SDS011;11549;50.852;3.816;2022-12-07T15:44:11;7.35;;;4.50;;
22764;SDS011;11549;50.852;3.816;2022-12-07T15:46:57;12.88;;;4.90;;